Time;durP1;ratioP1;P1;durP2;ratioP2;P2;SDS_P1;SDS_P2;PMS_P1;PMS_P2;Temp;Humidity;BMP_temperature;BMP_pressure;BME280_temperature;BME280_humidity;BME280_pressure;Samples;Min_cycle;Max_cycle;Signal;HPM_P1;HPM_P2
2022/08/19 00:01:13;;;;;;;8.23;6.95;;;;;;;;;;4972761;28;20066;-74
2022/08/19 00:03:39;;;;;;;8.93;7.07;;;;;;;;;;4986983;28;20034;-75
2022/08/19 00:06:05;;;;;;;8.52;7.20;;;;;;;;;;4980268;28;20040;-74
2022/08/19 00:08:32;;;;;;;9.35;6.78;;;;;;;;;;4967100;28;20022;-74
2022/08/19 00:10:58;;;;;;;14.07;8.10;;;;;;;;;;4984726;28;20502;-74
2022/08/19 00:13:24;;;;;;;9.30;7.13;;;;;;;;;;4982001;28;20038;-75
2022/08/19 00:15:50;;;;;;;8.35;7.45;;;;;;;;;;4985229;28;20040;-75
2022/08/19 00:18:16;;;;;;;10.30;7.28;;;;;;;;;;4987235;28;20042;-74
2022/08/19 00:20:42;;;;;;;11.43;7.82;;;;;;;;;;4985125;28;20039;-75
2022/08/19 00:23:08;;;;;;;10.35;8.05;;;;;;;;;;4979687;28;20512;-74
2022/08/19 00:25:34;;;;;;;8.77;7.90;;;;;;;;;;4970478;28;20031;-74
2022/08/19 00:28:00;;;;;;;9.68;8.68;;;;;;;;;;4974808;28;20022;-74
2022/08/19 00:30:30;;;;;;;11.00;9.05;;;;;;;;;;4991010;28;20468;-75
2022/08/19 00:32:56;;;;;;;10.43;9.02;;;;;;;;;;4979409;28;20555;-75
2022/08/19 00:35:22;;;;;;;10.75;9.40;;;;;;;;;;4990546;28;20102;-74
2022/08/19 00:37:49;;;;;;;12.00;10.77;;;;;;;;;;4986792;28;20034;-74
2022/08/19 00:40:16;;;;;;;12.35;10.60;;;;;;;;;;4972310;28;20537;-74
2022/08/19 00:42:42;;;;;;;12.98;9.40;;;;;;;;;;4982676;28;20042;-74
2022/08/19 00:45:13;;;;;;;10.68;8.68;;;;;;;;;;4973327;28;20122;-74
2022/08/19 00:47:40;;;;;;;11.85;10.38;;;;;;;;;;4981428;28;20042;-74
2022/08/19 00:50:06;;;;;;;10.27;9.25;;;;;;;;;;4975064;28;20035;-74
2022/08/19 00:52:34;;;;;;;11.88;9.70;;;;;;;;;;4976725;28;20039;-74
2022/08/19 00:55:00;;;;;;;12.60;10.60;;;;;;;;;;4979815;28;20088;-74
2022/08/19 00:57:33;;;;;;;14.73;9.98;;;;;;;;;;4979230;28;20390;-74
2022/08/19 01:00:01;;;;;;;11.30;9.52;;;;;;;;;;4979270;28;20041;-74
2022/08/19 01:02:28;;;;;;;11.55;9.90;;;;;;;;;;4975993;28;20027;-74
2022/08/19 01:04:54;;;;;;;11.55;10.18;;;;;;;;;;4993098;28;20054;-75
2022/08/19 01:07:22;;;;;;;11.32;10.07;;;;;;;;;;4991438;28;20029;-74
2022/08/19 01:09:48;;;;;;;11.93;10.65;;;;;;;;;;4982548;28;20485;-75
2022/08/19 01:12:14;;;;;;;12.48;9.63;;;;;;;;;;4991202;28;20029;-75
2022/08/19 01:14:40;;;;;;;11.65;10.45;;;;;;;;;;4981252;28;20030;-74
2022/08/19 01:17:09;;;;;;;12.68;11.05;;;;;;;;;;4983326;28;20157;-74
2022/08/19 01:19:37;;;;;;;14.38;11.30;;;;;;;;;;4980786;28;20037;-74
2022/08/19 01:22:06;;;;;;;11.60;10.40;;;;;;;;;;4991463;28;20046;-75
2022/08/19 01:24:32;;;;;;;12.40;9.37;;;;;;;;;;4985304;28;20065;-74
2022/08/19 01:26:58;;;;;;;13.65;11.07;;;;;;;;;;4954752;28;20286;-74
2022/08/19 01:29:26;;;;;;;12.70;10.75;;;;;;;;;;4984487;28;20041;-74
2022/08/19 01:31:53;;;;;;;13.35;11.95;;;;;;;;;;4954959;28;20034;-74
2022/08/19 01:34:19;;;;;;;13.60;12.20;;;;;;;;;;4976586;28;20828;-74
2022/08/19 01:36:47;;;;;;;13.88;11.38;;;;;;;;;;4976651;28;20048;-75
2022/08/19 01:39:15;;;;;;;13.73;11.93;;;;;;;;;;4978698;28;20022;-74
2022/08/19 01:41:41;;;;;;;16.15;11.35;;;;;;;;;;4975365;28;20030;-74
2022/08/19 01:44:07;;;;;;;12.65;11.32;;;;;;;;;;4966343;28;20044;-74
2022/08/19 01:46:33;;;;;;;13.00;11.55;;;;;;;;;;4990768;28;20123;-74
2022/08/19 01:48:59;;;;;;;13.43;11.73;;;;;;;;;;4987550;28;20053;-74
2022/08/19 01:51:26;;;;;;;15.27;11.77;;;;;;;;;;4963079;28;20045;-74
2022/08/19 01:53:52;;;;;;;13.65;12.25;;;;;;;;;;4990429;28;20149;-74
2022/08/19 01:56:19;;;;;;;14.05;12.00;;;;;;;;;;4980049;28;20508;-74
2022/08/19 01:58:51;;;;;;;13.27;11.80;;;;;;;;;;4983597;28;20545;-74
2022/08/19 02:01:18;;;;;;;13.05;11.68;;;;;;;;;;4979967;28;20037;-74
2022/08/19 02:03:44;;;;;;;14.32;12.27;;;;;;;;;;4990344;28;20030;-74
2022/08/19 02:06:10;;;;;;;12.32;11.00;;;;;;;;;;4979216;28;20038;-74
2022/08/19 02:08:38;;;;;;;13.63;11.55;;;;;;;;;;4989900;28;20109;-74
2022/08/19 02:11:04;;;;;;;14.18;11.93;;;;;;;;;;4987932;28;20052;-74
2022/08/19 02:13:30;;;;;;;12.90;11.45;;;;;;;;;;4971449;28;20033;-75
2022/08/19 02:15:56;;;;;;;13.68;11.07;;;;;;;;;;4982783;28;20136;-74
2022/08/19 02:18:22;;;;;;;14.52;10.93;;;;;;;;;;4970994;28;20421;-74
2022/08/19 02:20:48;;;;;;;16.23;13.13;;;;;;;;;;4989024;28;20037;-74
2022/08/19 02:23:15;;;;;;;14.07;12.43;;;;;;;;;;4956652;28;20039;-75
2022/08/19 02:25:42;;;;;;;13.50;11.82;;;;;;;;;;4977537;28;20029;-74
2022/08/19 02:28:08;;;;;;;16.17;11.52;;;;;;;;;;4975685;28;20038;-75
2022/08/19 02:30:34;;;;;;;17.42;11.65;;;;;;;;;;4975425;28;20481;-75
2022/08/19 02:33:00;;;;;;;17.80;12.35;;;;;;;;;;4965728;28;20029;-74
2022/08/19 02:35:26;;;;;;;14.02;10.93;;;;;;;;;;4987164;28;20105;-74
2022/08/19 02:40:37;;;;;;;12.98;11.55;;;;;;;;;;4973178;28;20077;-75
2022/08/19 02:43:07;;;;;;;12.57;10.93;;;;;;;;;;4980261;28;20157;-74
2022/08/19 02:45:36;;;;;;;14.75;11.05;;;;;;;;;;4972249;28;20027;-74
2022/08/19 02:48:04;;;;;;;13.82;11.45;;;;;;;;;;4964194;28;20148;-74
2022/08/19 02:50:30;;;;;;;13.93;12.05;;;;;;;;;;4972214;28;20552;-74
2022/08/19 02:52:57;;;;;;;13.48;11.68;;;;;;;;;;4981169;28;20034;-74
2022/08/19 02:55:23;;;;;;;14.93;12.13;;;;;;;;;;4970940;28;20027;-74
2022/08/19 02:57:49;;;;;;;15.85;12.27;;;;;;;;;;4977465;28;20093;-75
2022/08/19 03:00:15;;;;;;;14.15;12.45;;;;;;;;;;4990181;28;20022;-74
2022/08/19 03:02:41;;;;;;;15.35;12.57;;;;;;;;;;4977496;28;20031;-74
2022/08/19 03:05:09;;;;;;;13.25;11.13;;;;;;;;;;4989857;28;20057;-75
2022/08/19 03:07:35;;;;;;;13.65;11.40;;;;;;;;;;4978510;28;20454;-74
2022/08/19 03:10:01;;;;;;;15.60;12.48;;;;;;;;;;4989049;28;20393;-74
2022/08/19 03:12:27;;;;;;;15.30;12.65;;;;;;;;;;4982897;28;20041;-74
2022/08/19 03:14:53;;;;;;;14.77;12.85;;;;;;;;;;4973427;28;20031;-74
2022/08/19 03:17:20;;;;;;;15.40;13.55;;;;;;;;;;4974298;28;20531;-74
2022/08/19 03:19:46;;;;;;;13.82;11.98;;;;;;;;;;4970340;28;20030;-74
2022/08/19 03:22:12;;;;;;;14.57;12.93;;;;;;;;;;4956617;28;20073;-74
2022/08/19 03:24:40;;;;;;;14.55;12.32;;;;;;;;;;4981356;28;20069;-74
2022/08/19 03:27:06;;;;;;;16.00;13.15;;;;;;;;;;4987800;28;20073;-74
2022/08/19 03:29:32;;;;;;;14.48;11.60;;;;;;;;;;4980995;28;20113;-74
2022/08/19 03:32:03;;;;;;;14.25;12.63;;;;;;;;;;4971107;28;20022;-74
2022/08/19 03:34:32;;;;;;;15.48;13.38;;;;;;;;;;4961855;28;20393;-74
2022/08/19 03:37:00;;;;;;;14.45;12.45;;;;;;;;;;4978569;28;20081;-75
2022/08/19 03:39:26;;;;;;;15.43;13.10;;;;;;;;;;4979655;28;20026;-74
2022/08/19 03:41:56;;;;;;;14.77;13.07;;;;;;;;;;4989516;28;20397;-74
2022/08/19 03:44:22;;;;;;;17.15;13.48;;;;;;;;;;4981790;28;20110;-74
2022/08/19 03:46:50;;;;;;;14.38;12.20;;;;;;;;;;4969433;28;20055;-74
2022/08/19 03:49:17;;;;;;;15.05;12.63;;;;;;;;;;4973103;28;20057;-74
2022/08/19 03:51:43;;;;;;;17.15;12.85;;;;;;;;;;4975301;28;20030;-74
2022/08/19 03:54:11;;;;;;;15.27;13.68;;;;;;;;;;4973972;28;20029;-74
2022/08/19 03:56:38;;;;;;;16.55;13.77;;;;;;;;;;4970256;28;20378;-74
2022/08/19 03:59:04;;;;;;;17.42;13.30;;;;;;;;;;4977798;28;20080;-75
2022/08/19 04:01:30;;;;;;;15.55;13.90;;;;;;;;;;4987202;28;20026;-74
2022/08/19 04:03:57;;;;;;;17.00;14.38;;;;;;;;;;4982154;28;20030;-74
2022/08/19 04:06:25;;;;;;;17.85;15.00;;;;;;;;;;4987561;28;20033;-74
2022/08/19 04:08:53;;;;;;;16.45;14.35;;;;;;;;;;4987971;28;20105;-74
2022/08/19 04:11:21;;;;;;;17.63;14.95;;;;;;;;;;4983037;28;20072;-74
2022/08/19 04:13:48;;;;;;;17.38;15.25;;;;;;;;;;4972864;28;20037;-74
2022/08/19 04:16:14;;;;;;;16.90;14.57;;;;;;;;;;4983983;28;20377;-75
2022/08/19 04:18:40;;;;;;;16.45;14.48;;;;;;;;;;4974856;28;20102;-74
2022/08/19 04:21:06;;;;;;;16.23;14.05;;;;;;;;;;4983951;28;20062;-74
2022/08/19 04:23:33;;;;;;;15.52;13.75;;;;;;;;;;4957667;28;20027;-75
2022/08/19 04:25:59;;;;;;;17.60;14.35;;;;;;;;;;4983902;28;20023;-74
2022/08/19 04:28:26;;;;;;;16.55;13.50;;;;;;;;;;4973180;28;20477;-74
2022/08/19 04:30:53;;;;;;;16.98;14.70;;;;;;;;;;4984905;28;20397;-74
2022/08/19 04:33:22;;;;;;;18.42;14.82;;;;;;;;;;4991770;28;20027;-74
2022/08/19 04:35:48;;;;;;;16.80;14.43;;;;;;;;;;4984431;28;20042;-74
2022/08/19 04:38:15;;;;;;;17.98;15.70;;;;;;;;;;4972764;28;20037;-74
2022/08/19 04:43:27;;;;;;;18.90;15.82;;;;;;;;;;4991992;28;20058;-74
2022/08/19 04:45:53;;;;;;;19.00;16.17;;;;;;;;;;4990656;28;20105;-74
2022/08/19 04:48:26;;;;;;;17.75;15.20;;;;;;;;;;4991375;28;20023;-74
2022/08/19 04:50:59;;;;;;;17.75;15.98;;;;;;;;;;4981844;28;20478;-74
2022/08/19 04:53:28;;;;;;;17.50;15.65;;;;;;;;;;4976039;28;20110;-73
2022/08/19 04:55:54;;;;;;;17.75;15.82;;;;;;;;;;4980487;28;20037;-73
2022/08/19 04:58:20;;;;;;;17.17;14.38;;;;;;;;;;4958522;28;20023;-74
2022/08/19 05:00:46;;;;;;;19.55;16.10;;;;;;;;;;4978115;28;20037;-73
2022/08/19 05:03:14;;;;;;;18.65;16.63;;;;;;;;;;4977963;28;20442;-73
2022/08/19 05:05:41;;;;;;;17.95;15.95;;;;;;;;;;4980495;28;20069;-73
2022/08/19 05:08:07;;;;;;;19.83;16.58;;;;;;;;;;4962419;28;20033;-73
2022/08/19 05:10:37;;;;;;;20.67;16.48;;;;;;;;;;4975297;28;20054;-73
2022/08/19 05:13:04;;;;;;;19.70;17.63;;;;;;;;;;4981485;28;20557;-73
2022/08/19 05:15:31;;;;;;;20.25;18.15;;;;;;;;;;4987227;28;20082;-73
2022/08/19 05:23:26;;;;;;;19.50;16.73;;;;;;;;;;4973947;28;20552;-73
2022/08/19 05:25:52;;;;;;;19.98;17.65;;;;;;;;;;4974928;28;20046;-74
2022/08/19 05:28:20;;;;;;;21.60;18.70;;;;;;;;;;4965326;28;20592;-74
2022/08/19 05:30:47;;;;;;;24.85;21.70;;;;;;;;;;4972619;28;20034;-73
2022/08/19 05:33:13;;;;;;;23.45;21.02;;;;;;;;;;4985337;28;20092;-73
2022/08/19 05:35:40;;;;;;;24.30;21.70;;;;;;;;;;4990762;28;20022;-74
2022/08/19 05:38:08;;;;;;;29.30;24.67;;;;;;;;;;4983801;28;20050;-73
2022/08/19 05:40:38;;;;;;;30.58;26.75;;;;;;;;;;4971814;28;20401;-74
2022/08/19 05:43:04;;;;;;;;;;;;;;;;;;4961546;28;20505;-74
2022/08/19 05:45:30;;;;;;;33.08;26.55;;;;;;;;;;4990684;28;19906;-74
2022/08/19 05:47:56;;;;;;;35.90;30.27;;;;;;;;;;4989399;28;20042;-74
2022/08/19 05:50:22;;;;;;;32.95;28.30;;;;;;;;;;4955043;28;20500;-74
2022/08/19 05:52:48;;;;;;;31.05;27.67;;;;;;;;;;4976964;28;20042;-74
2022/08/19 05:55:14;;;;;;;30.73;26.35;;;;;;;;;;4987334;28;20377;-73
2022/08/19 05:57:40;;;;;;;32.28;28.88;;;;;;;;;;4986040;28;20048;-73
2022/08/19 06:00:11;;;;;;;32.40;28.05;;;;;;;;;;4978996;28;20314;-74
2022/08/19 06:02:37;;;;;;;33.33;27.80;;;;;;;;;;4979146;28;20037;-73
2022/08/19 06:05:06;;;;;;;24.83;22.08;;;;;;;;;;4982071;28;20029;-73
2022/08/19 06:07:32;;;;;;;10.38;5.95;;;;;;;;;;4982888;28;20452;-74
2022/08/19 06:09:58;;;;;;;26.95;24.15;;;;;;;;;;4981132;28;20054;-74
2022/08/19 06:12:28;;;;;;;27.42;23.23;;;;;;;;;;4980618;28;20125;-73
2022/08/19 06:14:54;;;;;;;25.23;22.20;;;;;;;;;;4980473;28;20015;-74
2022/08/19 06:17:22;;;;;;;27.00;24.13;;;;;;;;;;4980456;28;20426;-73
2022/08/19 06:19:49;;;;;;;27.05;22.52;;;;;;;;;;4980582;28;20007;-73
2022/08/19 06:22:15;;;;;;;23.65;20.90;;;;;;;;;;4977782;28;20536;-73
2022/08/19 06:24:42;;;;;;;15.18;13.55;;;;;;;;;;4980784;28;20034;-74
2022/08/19 06:27:08;;;;;;;5.88;4.72;;;;;;;;;;4979771;28;20023;-73
2022/08/19 06:29:34;;;;;;;7.65;6.13;;;;;;;;;;4984987;28;20030;-73
2022/08/19 06:32:02;;;;;;;8.50;6.53;;;;;;;;;;4979889;28;20054;-69
2022/08/19 06:34:30;;;;;;;8.27;6.38;;;;;;;;;;4977988;28;20029;-69
2022/08/19 06:36:57;;;;;;;7.88;4.82;;;;;;;;;;4976893;28;20026;-70
2022/08/19 06:39:25;;;;;;;10.77;8.40;;;;;;;;;;4989538;28;20573;-69
2022/08/19 06:41:52;;;;;;;10.20;6.25;;;;;;;;;;4984714;28;20117;-69
2022/08/19 06:44:19;;;;;;;9.75;6.47;;;;;;;;;;4961829;28;20035;-69
2022/08/19 06:46:45;;;;;;;14.15;6.60;;;;;;;;;;4955228;28;20129;-68
2022/08/19 06:49:13;;;;;;;11.95;8.23;;;;;;;;;;4978043;28;20022;-68
2022/08/19 06:51:40;;;;;;;13.48;7.55;;;;;;;;;;4975996;28;20035;-69
2022/08/19 06:54:06;;;;;;;14.25;6.97;;;;;;;;;;4977645;28;20304;-69
2022/08/19 06:56:35;;;;;;;14.73;9.02;;;;;;;;;;4982015;28;20030;-69
2022/08/19 06:59:06;;;;;;;25.15;19.02;;;;;;;;;;4962823;28;20022;-69
2022/08/19 07:01:51;;;;;;;33.83;19.15;;;;;;;;;;4970165;28;20030;-69
2022/08/19 07:04:20;;;;;;;29.80;22.80;;;;;;;;;;4958150;28;20054;-69
2022/08/19 07:06:46;;;;;;;22.58;15.15;;;;;;;;;;4988880;28;20030;-69
2022/08/19 07:09:15;;;;;;;15.65;10.88;;;;;;;;;;4976439;28;20422;-68
2022/08/19 07:11:49;;;;;;;44.67;29.23;;;;;;;;;;4989024;28;20034;-68
2022/08/19 07:14:17;;;;;;;40.53;28.15;;;;;;;;;;4976591;28;20054;-68
2022/08/19 07:16:45;;;;;;;62.50;40.90;;;;;;;;;;4988810;28;20038;-67
2022/08/19 07:19:11;;;;;;;40.28;26.50;;;;;;;;;;4977236;28;20031;-68
2022/08/19 07:21:37;;;;;;;34.95;24.67;;;;;;;;;;4988454;28;20445;-68
2022/08/19 07:24:03;;;;;;;24.90;17.13;;;;;;;;;;4980121;28;20030;-67
2022/08/19 07:26:33;;;;;;;19.73;14.63;;;;;;;;;;4986580;28;20393;-68
2022/08/19 07:29:01;;;;;;;39.17;28.00;;;;;;;;;;4982533;28;20027;-69
2022/08/19 07:31:28;;;;;;;29.98;18.48;;;;;;;;;;4982917;28;20026;-68
2022/08/19 07:33:55;;;;;;;40.80;27.48;;;;;;;;;;4974042;28;20019;-68
2022/08/19 07:36:24;;;;;;;29.10;21.02;;;;;;;;;;4971820;28;20027;-68
2022/08/19 07:38:50;;;;;;;27.13;18.88;;;;;;;;;;4974067;28;20029;-68
2022/08/19 07:41:23;;;;;;;53.05;37.53;;;;;;;;;;4983014;28;20069;-68
2022/08/19 07:43:49;;;;;;;32.33;22.50;;;;;;;;;;4972300;28;20424;-68
2022/08/19 07:46:16;;;;;;;27.13;18.73;;;;;;;;;;4981249;28;20058;-68
2022/08/19 07:48:46;;;;;;;40.20;30.45;;;;;;;;;;4989936;28;20366;-68
2022/08/19 07:51:14;;;;;;;50.38;36.92;;;;;;;;;;4982837;28;20041;-68
2022/08/19 07:53:40;;;;;;;33.63;24.83;;;;;;;;;;4993244;28;20854;-68
2022/08/19 07:56:06;;;;;;;49.72;38.58;;;;;;;;;;4967596;28;20489;-68
2022/08/19 07:58:34;;;;;;;59.13;43.50;;;;;;;;;;4974188;28;20106;-68
2022/08/19 08:01:00;;;;;;;61.30;47.05;;;;;;;;;;4986639;28;20480;-71
2022/08/19 08:09:10;;;;;;;31.67;22.42;;;;;;;;;;4974933;28;20486;-69
2022/08/19 08:09:23;;;;;;;34.63;24.83;;;;;;;;;;4991383;28;20081;-67
2022/08/19 08:11:52;;;;;;;39.53;31.02;;;;;;;;;;4981447;28;20061;-67
2022/08/19 08:14:22;;;;;;;31.33;24.50;;;;;;;;;;4992225;28;20034;-67
2022/08/19 08:16:50;;;;;;;31.38;24.40;;;;;;;;;;4983959;28;20077;-67
2022/08/19 08:19:17;;;;;;;43.90;36.95;;;;;;;;;;4973161;28;20031;-68
2022/08/19 08:21:43;;;;;;;65.15;52.67;;;;;;;;;;4985069;28;20035;-67
2022/08/19 08:24:10;;;;;;;60.00;50.00;;;;;;;;;;4992167;28;20031;-68
2022/08/19 08:26:36;;;;;;;41.40;34.33;;;;;;;;;;4966431;28;20081;-67
2022/08/19 08:29:02;;;;;;;35.78;30.30;;;;;;;;;;4992744;28;20026;-68
2022/08/19 08:31:28;;;;;;;22.58;19.42;;;;;;;;;;4987587;28;20133;-68
2022/08/19 08:33:54;;;;;;;21.95;19.38;;;;;;;;;;4991889;28;20494;-68
2022/08/19 08:36:20;;;;;;;41.45;32.58;;;;;;;;;;4986981;28;20038;-68
2022/08/19 08:38:47;;;;;;;43.67;36.28;;;;;;;;;;4991421;28;20038;-67
2022/08/19 08:41:32;;;;;;;34.75;27.45;;;;;;;;;;4987013;28;20081;-68
2022/08/19 08:43:58;;;;;;;33.47;26.77;;;;;;;;;;4977016;28;20027;-68
2022/08/19 08:46:26;;;;;;;22.20;17.83;;;;;;;;;;4984403;28;20105;-68
2022/08/19 08:49:08;;;;;;;18.75;15.77;;;;;;;;;;4978035;28;20027;-68
2022/08/19 08:51:38;;;;;;;47.60;38.05;;;;;;;;;;4976839;28;20021;-67
2022/08/19 08:54:06;;;;;;;33.80;26.58;;;;;;;;;;4978349;28;20019;-66
2022/08/19 08:56:32;;;;;;;37.85;29.38;;;;;;;;;;4976491;28;20540;-67
2022/08/19 08:59:18;;;;;;;52.67;41.67;;;;;;;;;;4981409;28;20433;-67
2022/08/19 09:01:45;;;;;;;39.13;30.45;;;;;;;;;;4965177;28;20583;-67
2022/08/19 09:04:12;;;;;;;35.90;29.00;;;;;;;;;;4989270;28;20042;-67
2022/08/19 09:06:47;;;;;;;33.95;24.35;;;;;;;;;;4987837;28;20197;-67
2022/08/19 09:09:28;;;;;;;23.83;17.80;;;;;;;;;;4963224;28;20031;-67
2022/08/19 09:12:09;;;;;;;26.45;18.85;;;;;;;;;;4987948;28;20061;-67
2022/08/19 09:14:40;;;;;;;44.75;34.13;;;;;;;;;;4979185;28;20034;-67
2022/08/19 09:17:07;;;;;;;18.73;14.43;;;;;;;;;;4974205;28;20575;-67
2022/08/19 09:19:34;;;;;;;47.53;36.72;;;;;;;;;;4962817;28;20031;-67
2022/08/19 09:22:01;;;;;;;22.55;16.88;;;;;;;;;;4983370;28;20038;-68
2022/08/19 09:24:27;;;;;;;24.92;19.95;;;;;;;;;;4983263;28;20031;-67
2022/08/19 09:26:53;;;;;;;30.25;22.58;;;;;;;;;;4973192;28;20486;-67
2022/08/19 09:29:20;;;;;;;17.20;13.32;;;;;;;;;;4980417;28;20030;-68
2022/08/19 09:31:46;;;;;;;26.63;20.27;;;;;;;;;;4990270;28;20042;-68
2022/08/19 09:34:12;;;;;;;33.90;26.42;;;;;;;;;;4983585;28;20674;-68
2022/08/19 09:36:38;;;;;;;17.42;14.20;;;;;;;;;;4983833;28;20022;-68
2022/08/19 09:39:05;;;;;;;18.73;13.90;;;;;;;;;;4986888;28;20031;-67
2022/08/19 09:41:32;;;;;;;18.75;14.02;;;;;;;;;;4990951;28;20093;-67
2022/08/19 09:44:00;;;;;;;19.75;14.68;;;;;;;;;;4962917;28;20050;-68
2022/08/19 09:46:27;;;;;;;18.08;14.43;;;;;;;;;;4971935;28;20061;-68
2022/08/19 09:48:53;;;;;;;20.65;14.65;;;;;;;;;;4975826;28;20034;-68
2022/08/19 09:51:23;;;;;;;22.27;17.02;;;;;;;;;;4987892;28;20441;-68
2022/08/19 09:53:56;;;;;;;;;;;;;;;;;;4984626;28;20481;-65
2022/08/19 09:56:23;;;;;;;31.42;27.15;;;;;;;;;;4978229;28;19913;-68
2022/08/19 09:58:49;;;;;;;18.42;14.20;;;;;;;;;;4978509;28;20112;-68
2022/08/19 10:01:23;;;;;;;24.52;17.30;;;;;;;;;;4976934;28;20026;-69
2022/08/19 10:03:51;;;;;;;28.38;22.58;;;;;;;;;;4976449;28;20039;-68
2022/08/19 10:06:18;;;;;;;31.90;22.38;;;;;;;;;;4977247;28;20489;-68
2022/08/19 10:08:44;;;;;;;17.42;12.75;;;;;;;;;;4975849;28;20031;-69
2022/08/19 10:11:10;;;;;;;23.60;17.35;;;;;;;;;;4975423;28;20026;-70
2022/08/19 10:13:37;;;;;;;16.38;11.77;;;;;;;;;;4974848;28;20397;-68
2022/08/19 10:16:06;;;;;;;29.75;20.40;;;;;;;;;;4978220;28;20045;-68
2022/08/19 10:18:35;;;;;;;21.30;14.68;;;;;;;;;;4974730;28;20023;-69
2022/08/19 10:21:09;;;;;;;30.00;22.38;;;;;;;;;;4971152;28;20072;-69
2022/08/19 10:23:40;;;;;;;19.52;15.38;;;;;;;;;;4959585;28;20038;-69
2022/08/19 10:26:07;;;;;;;24.05;17.67;;;;;;;;;;4977964;28;20033;-69
2022/08/19 10:28:36;;;;;;;19.08;13.20;;;;;;;;;;4978256;28;20030;-70
2022/08/19 10:31:07;;;;;;;22.42;16.77;;;;;;;;;;4979047;28;20166;-69
2022/08/19 10:33:34;;;;;;;14.38;10.70;;;;;;;;;;4978658;28;20034;-70
2022/08/19 10:36:17;;;;;;;25.20;19.73;;;;;;;;;;4973999;28;20025;-70
2022/08/19 10:38:45;;;;;;;19.77;14.73;;;;;;;;;;4975665;28;20034;-70
2022/08/19 10:41:12;;;;;;;32.38;24.25;;;;;;;;;;4958599;28;20037;-66
2022/08/19 10:43:39;;;;;;;15.10;10.50;;;;;;;;;;4957793;28;20077;-66
2022/08/19 10:46:06;;;;;;;31.13;25.20;;;;;;;;;;4957784;28;20795;-67
2022/08/19 10:48:33;;;;;;;15.38;10.55;;;;;;;;;;4977804;28;20030;-67
2022/08/19 10:53:44;;;;;;;27.05;22.00;;;;;;;;;;4975800;28;20125;-68
2022/08/19 10:58:56;;;;;;;22.77;15.90;;;;;;;;;;4977319;28;20580;-68
2022/08/19 11:01:22;;;;;;;25.77;20.65;;;;;;;;;;4978960;28;20041;-69
2022/08/19 11:03:48;;;;;;;15.20;10.98;;;;;;;;;;4979542;28;20027;-68
2022/08/19 11:06:14;;;;;;;23.65;16.92;;;;;;;;;;4976785;28;20082;-68
2022/08/19 11:08:41;;;;;;;19.92;12.15;;;;;;;;;;4958760;28;20493;-68
2022/08/19 11:11:08;;;;;;;26.02;18.95;;;27.90;60.30;;;;;;4980950;28;20045;-70
2022/08/19 11:13:37;;;;;;;31.65;25.63;;;28.20;60.40;;;;;;4988855;28;20541;-70
2022/08/19 11:16:15;;;;;;;30.88;22.45;;;28.20;56.50;;;;;;4978823;28;20069;-71
2022/08/19 11:18:44;;;;;;;26.58;21.90;;;28.20;58.30;;;;;;4981063;28;20464;-71
2022/08/19 11:21:17;;;;;;;20.33;16.95;;;28.40;57.40;;;;;;4986889;28;20048;-70
2022/08/19 11:23:43;;;;;;;29.95;25.30;;;28.40;57.20;;;;;;4985297;28;20084;-70
2022/08/19 11:26:09;;;;;;;25.05;18.88;;;28.40;56.00;;;;;;4986578;28;20481;-70
2022/08/19 11:28:35;;;;;;;23.90;18.27;;;28.40;56.60;;;;;;4981916;28;20033;-70
2022/08/19 11:31:03;;;;;;;25.00;20.08;;;28.50;57.20;;;;;;4974527;28;20027;-70
2022/08/19 11:33:32;;;;;;;18.63;13.05;;;28.80;57.60;;;;;;4985176;28;20029;-70
2022/08/19 11:36:00;;;;;;;20.95;14.95;;;28.80;56.80;;;;;;4986589;28;20029;-72
2022/08/19 11:38:27;;;;;;;27.92;21.95;;;29.10;56.10;;;;;;4976782;28;20050;-70
2022/08/19 11:41:00;;;;;;;24.58;20.17;;;29.30;54.60;;;;;;4987822;28;20014;-70
2022/08/19 11:43:27;;;;;;;28.25;19.73;;;29.40;53.90;;;;;;4975324;28;20033;-70
2022/08/19 11:45:55;;;;;;;20.50;15.82;;;29.30;54.20;;;;;;4986948;28;20029;-70
2022/08/19 11:48:22;;;;;;;24.20;18.25;;;29.20;54.90;;;;;;4974844;28;20339;-70
2022/08/19 11:50:54;;;;;;;18.80;12.98;;;29.20;54.50;;;;;;4987321;28;20097;-70
2022/08/19 11:53:20;;;;;;;22.83;17.38;;;29.20;55.40;;;;;;4975752;28;20481;-71
2022/08/19 11:55:47;;;;;;;25.23;19.42;;;29.30;54.70;;;;;;4988204;28;20031;-70
2022/08/19 11:58:14;;;;;;;23.15;18.95;;;29.40;54.00;;;;;;4979724;28;20030;-69
2022/08/19 12:00:41;;;;;;;14.40;11.30;;;29.30;53.80;;;;;;4986472;28;20500;-70
2022/08/19 12:03:07;;;;;;;16.02;12.63;;;29.30;56.90;;;;;;4981685;28;20517;-70
2022/08/19 12:05:33;;;;;;;24.20;16.70;;;29.40;56.00;;;;;;4984033;28;20023;-70
2022/08/19 12:07:58;;;;;;;20.70;14.27;;;29.60;54.80;;;;;;4984492;28;20106;-70
2022/08/19 12:10:24;;;;;;;15.50;11.13;;;29.80;53.90;;;;;;4980966;28;20125;-70
2022/08/19 12:12:50;;;;;;;20.60;15.73;;;29.90;56.40;;;;;;4986535;28;20053;-70
2022/08/19 12:15:16;;;;;;;20.48;16.05;;;30.00;53.60;;;;;;4978646;28;20022;-70
2022/08/19 12:17:42;;;;;;;22.60;17.25;;;30.10;53.20;;;;;;4987239;28;20022;-70
2022/08/19 12:20:10;;;;;;;12.68;9.95;;;30.30;54.80;;;;;;4977887;28;20030;-70
2022/08/19 12:22:37;;;;;;;20.73;14.73;;;30.40;58.00;;;;;;4954616;28;20050;-70
2022/08/19 12:25:04;;;;;;;20.42;18.15;;;30.40;54.90;;;;;;4977492;28;20019;-71
2022/08/19 12:27:30;;;;;;;24.13;19.67;;;30.60;54.90;;;;;;4992252;28;20038;-71
2022/08/19 12:29:57;;;;;;;30.35;24.80;;;30.80;54.40;;;;;;4986080;28;20087;-71
2022/08/19 12:32:24;;;;;;;18.30;15.57;;;30.70;52.30;;;;;;4978394;28;20082;-71
2022/08/19 12:34:50;;;;;;;18.95;15.43;;;30.60;53.90;;;;;;4970171;28;20030;-71
2022/08/19 12:37:16;;;;;;;23.55;19.88;;;30.50;53.80;;;;;;4989806;28;20041;-71
2022/08/19 12:39:43;;;;;;;20.52;17.58;;;30.70;53.80;;;;;;4987891;28;20736;-70
2022/08/19 12:42:11;;;;;;;22.45;17.90;;;30.70;54.00;;;;;;4974626;28;20030;-70
2022/08/19 12:44:39;;;;;;;27.77;23.50;;;30.50;52.90;;;;;;4978002;28;20019;-70
2022/08/19 12:47:06;;;;;;;23.63;21.05;;;30.50;52.90;;;;;;4987569;28;20051;-70
2022/08/19 12:49:33;;;;;;;29.80;23.55;;;30.50;53.10;;;;;;4986127;28;20389;-70
2022/08/19 12:52:00;;;;;;;13.07;11.20;;;30.50;51.80;;;;;;4985678;28;20018;-71
2022/08/19 12:54:27;;;;;;;13.55;9.60;;;30.50;55.00;;;;;;4987864;28;20114;-70
2022/08/19 12:56:53;;;;;;;26.40;22.08;;;30.70;55.30;;;;;;4983290;28;20129;-72
2022/08/19 12:59:19;;;;;;;24.13;20.02;;;30.80;52.20;;;;;;4990583;28;20026;-71
2022/08/19 13:01:45;;;;;;;22.13;18.60;;;30.70;52.60;;;;;;4981147;28;20393;-71
2022/08/19 13:04:11;;;;;;;30.58;27.20;;;30.60;52.90;;;;;;4990496;28;20052;-71
2022/08/19 13:06:37;;;;;;;20.25;17.33;;;30.40;52.40;;;;;;4980205;28;20030;-71
2022/08/19 13:09:04;;;;;;;14.52;10.48;;;30.40;53.40;;;;;;4974339;28;20034;-71
2022/08/19 13:11:34;;;;;;;18.77;16.80;;;30.50;55.10;;;;;;4959467;28;20033;-71
2022/08/19 13:14:01;;;;;;;26.75;21.40;;;30.70;54.10;;;;;;4972504;28;20026;-70
2022/08/19 13:16:28;;;;;;;21.67;17.33;;;30.80;52.40;;;;;;4984173;28;20022;-71
2022/08/19 13:18:57;;;;;;;24.25;19.80;;;30.90;54.50;;;;;;4972262;28;20059;-71
2022/08/19 13:21:26;;;;;;;24.63;21.95;;;30.80;53.00;;;;;;4986631;28;20122;-71
2022/08/19 13:23:52;;;;;;;27.17;24.40;;;30.70;52.50;;;;;;4972137;28;20030;-71
2022/08/19 13:26:18;;;;;;;17.65;14.82;;;30.50;54.50;;;;;;4982173;28;20030;-71
2022/08/19 13:34:17;;;;;;;26.00;22.55;;;31.10;52.30;;;;;;4991560;28;20053;-71
2022/08/19 13:36:43;;;;;;;14.10;12.00;;;31.20;51.00;;;;;;4989725;28;20026;-72
2022/08/19 13:39:09;;;;;;;22.55;19.85;;;31.10;55.00;;;;;;4991502;28;20026;-71
2022/08/19 13:41:36;;;;;;;16.40;12.32;;;31.00;50.90;;;;;;4982917;28;20031;-71
2022/08/19 13:44:02;;;;;;;15.75;12.57;;;30.90;52.70;;;;;;4987029;28;20025;-70
2022/08/19 13:46:29;;;;;;;25.95;22.35;;;30.70;54.70;;;;;;4984676;28;20050;-71
2022/08/19 13:48:56;;;;;;;15.60;13.98;;;30.40;52.50;;;;;;4985340;28;20027;-71
2022/08/19 13:51:21;;;;;;;26.02;23.35;;;30.10;55.10;;;;;;4986556;28;20065;-71
2022/08/19 13:53:47;;;;;;;20.08;14.75;;;29.90;53.40;;;;;;4982494;28;20081;-70
2022/08/19 13:56:15;;;;;;;26.77;23.92;;;30.00;56.50;;;;;;4989318;28;20516;-71
2022/08/19 13:58:41;;;;;;;15.98;9.50;;;30.10;53.40;;;;;;4990703;28;20105;-72
2022/08/19 14:01:08;;;;;;;21.25;18.63;;;30.00;57.60;;;;;;4989221;28;20030;-71
2022/08/19 14:03:34;;;;;;;17.83;14.73;;;30.00;54.80;;;;;;4980185;28;20026;-70
2022/08/19 14:06:01;;;;;;;12.70;9.30;;;30.00;55.90;;;;;;4990092;28;20466;-70
2022/08/19 14:08:27;;;;;;;21.20;18.52;;;30.00;57.70;;;;;;4979249;28;20488;-71
2022/08/19 14:10:54;;;;;;;17.05;15.38;;;30.10;56.40;;;;;;4990812;28;20049;-70
2022/08/19 14:13:22;;;;;;;17.77;14.13;;;30.10;56.60;;;;;;4975444;28;20547;-71
2022/08/19 14:15:49;;;;;;;24.65;21.67;;;30.00;57.10;;;;;;4990585;28;20033;-71
2022/08/19 14:18:16;;;;;;;31.95;27.55;;;29.70;56.60;;;;;;4978123;28;20034;-71